Time;durP1;ratioP1;P1;durP2;ratioP2;P2;SDS_P1;SDS_P2;PMS_P1;PMS_P2;Temp;Humidity;BMP_temperature;BMP_pressure;BME280_temperature;BME280_humidity;BME280_pressure;Samples;Min_cycle;Max_cycle;Signal;HPM_P1;HPM_P2
2022/12/29 00:01:22;;;;;;;;;;;;;;;10.78;73.09;99932.66;5015082;28;19921;-76
2022/12/29 00:03:48;;;;;;;;;;;;;;;10.78;72.92;99935.38;5013938;28;19924;-75
2022/12/29 00:06:13;;;;;;;;;;;;;;;10.80;72.89;99929.72;5014825;28;20007;-75
2022/12/29 00:08:41;;;;;;;;;;;;;;;10.79;72.93;99937.03;5015091;28;19917;-76
2022/12/29 00:11:11;;;;;;;;;;;;;;;10.80;72.86;99935.94;5015071;28;20019;-75
2022/12/29 00:16:20;;;;;;;;;;;;;;;10.79;73.00;99920.81;5013860;28;20489;-77
2022/12/29 00:18:45;;;;;;;;;;;;;;;10.81;72.97;99924.06;5014577;28;20012;-78
2022/12/29 00:35:10;;;;;;;;;;;;;;;10.82;72.85;99893.25;5014484;28;20412;-76
2022/12/29 00:45:54;;;;;;;;;;;;;;;10.86;72.89;99890.84;5014600;28;19964;-76
2022/12/29 00:49:30;;;;;;;;;;;;;;;10.87;72.87;99886.25;5014646;28;19953;-76
2022/12/29 00:51:05;;;;;;;;;;;;;;;10.88;72.67;99893.28;5014288;28;20273;-76
2022/12/29 00:53:30;;;;;;;;;;;;;;;10.89;72.78;99868.72;5014355;28;20342;-75
2022/12/29 00:55:56;;;;;;;;;;;;;;;10.89;72.87;99862.50;5014145;28;19913;-76
2022/12/29 00:58:21;;;;;;;;;;;;;;;10.89;73.02;99859.78;5014637;28;19914;-76
2022/12/29 01:00:46;;;;;;;;;;;;;;;10.90;72.81;99858.72;5014380;28;19913;-76
2022/12/29 01:03:11;;;;;;;;;;;;;;;10.90;73.04;99856.00;5013256;28;19968;-76
2022/12/29 01:05:37;;;;;;;;;;;;;;;10.91;72.76;99846.81;5013855;28;19923;-75
2022/12/29 01:08:02;;;;;;;;;;;;;;;10.91;72.77;99854.91;5014065;28;20379;-76
2022/12/29 01:10:27;;;;;;;;;;;;;;;10.91;72.62;99853.03;5016520;28;19917;-76
2022/12/29 01:12:52;;;;;;;;;;;;;;;10.90;72.90;99856.00;5017108;28;20350;-76
2022/12/29 01:15:18;;;;;;;;;;;;;;;10.91;72.96;99842.25;5018093;28;19913;-76
2022/12/29 01:17:43;;;;;;;;;;;;;;;10.91;72.83;99842.25;5017950;28;20024;-75
2022/12/29 01:20:09;;;;;;;;;;;;;;;10.92;72.90;99840.34;5017929;28;19924;-76
2022/12/29 01:22:34;;;;;;;;;;;;;;;10.92;72.81;99843.03;5017715;28;20008;-75
2022/12/29 01:24:59;;;;;;;;;;;;;;;10.91;72.79;99838.69;5016485;28;19917;-77
2022/12/29 01:27:24;;;;;;;;;;;;;;;10.93;72.91;99828.44;5016694;28;19913;-76
2022/12/29 01:29:50;;;;;;;;;;;;;;;10.92;72.83;99829.53;5017563;28;20409;-76
2022/12/29 01:32:15;;;;;;;;;;;;;;;10.93;72.94;99829.25;5017690;28;19936;-75
2022/12/29 01:34:40;;;;;;;;;;;;;;;10.93;72.88;99825.75;5017812;28;19914;-75
2022/12/29 01:37:06;;;;;;;;;;;;;;;10.92;72.85;99830.34;5017523;28;19918;-76
2022/12/29 01:39:31;;;;;;;;;;;;;;;10.92;73.10;99816.03;5017701;28;19960;-75
2022/12/29 01:41:56;;;;;;;;;;;;;;;10.93;73.00;99847.34;5018072;28;20337;-76
2022/12/29 01:44:40;;;;;;;;;;;;;;;10.93;72.83;99839.25;5016375;28;20289;-77
2022/12/29 01:47:07;;;;;;;;;;;;;;;10.92;72.93;99833.03;5017190;28;20301;-76
2022/12/29 01:49:32;;;;;;;;;;;;;;;10.92;72.99;99838.44;5017229;28;19921;-77
2022/12/29 01:52:03;;;;;;;;;;;;;;;10.92;73.14;99827.63;5016635;28;19921;-75
2022/12/29 01:54:29;;;;;;;;;;;;;;;10.92;72.82;99819.53;5017737;28;19917;-76
2022/12/29 01:56:57;;;;;;;;;;;;;;;10.93;73.00;99829.25;5017613;28;19924;-77
2022/12/29 01:59:24;;;;;;;;;;;;;;;10.92;72.92;99819.53;5017249;28;20409;-76
2022/12/29 02:01:53;;;;;;;;;;;;;;;10.95;72.90;99837.09;5017290;28;19956;-76
2022/12/29 02:04:18;;;;;;;;;;;;;;;10.94;73.12;99836.28;5017649;28;19917;-76
2022/12/29 02:06:47;;;;;;;;;;;;;;;10.95;72.94;99834.41;5016043;28;20020;-76
2022/12/29 02:09:13;;;;;;;;;;;;;;;10.94;72.89;99825.47;5016997;28;20384;-76
2022/12/29 02:11:38;;;;;;;;;;;;;;;10.95;72.82;99832.50;5016818;28;19919;-76
2022/12/29 02:14:10;;;;;;;;;;;;;;;10.95;72.91;99832.50;5016713;28;20357;-76
2022/12/29 02:16:35;;;;;;;;;;;;;;;10.96;72.80;99830.59;5017032;28;19917;-76
2022/12/29 02:19:19;;;;;;;;;;;;;;;10.96;72.78;99825.19;5016736;28;20064;-75
2022/12/29 02:21:50;;;;;;;;;;;;;;;10.97;72.83;99824.94;5016807;28;19982;-76
2022/12/29 02:24:33;;;;;;;;;;;;;;;10.97;72.96;99821.44;5016403;28;20418;-76
2022/12/29 02:26:59;;;;;;;;;;;;;;;10.98;72.78;99826.56;5016723;28;19960;-76
2022/12/29 02:29:30;;;;;;;;;;;;;;;10.98;72.77;99815.75;5016602;28;19917;-75
2022/12/29 02:31:58;;;;;;;;;;;;;;;10.98;72.82;99818.44;5017244;28;19975;-76
2022/12/29 02:34:26;;;;;;;;;;;;;;;10.98;72.87;99823.03;5016572;28;19921;-76
2022/12/29 02:37:01;;;;;;;;;;;;;;;11.00;72.67;99824.41;5016602;28;19921;-76
2022/12/29 02:39:36;;;;;;;;;;;;;;;11.01;72.65;99812.53;5016862;28;19914;-76
2022/12/29 02:42:21;;;;;;;;;;;;;;;11.01;72.74;99817.94;5016501;28;19914;-75
2022/12/29 02:45:02;;;;;;;;;;;;;;;11.02;72.60;99834.97;5016187;28;20285;-75
2022/12/29 02:47:46;;;;;;;;;;;;;;;11.03;72.64;99829.25;5032463;28;20370;-75
2022/12/29 02:50:20;;;;;;;;;;;;;;;11.03;72.60;99814.94;5016668;28;19913;-76
2022/12/29 02:52:58;;;;;;;;;;;;;;;11.04;72.69;99813.88;5015070;28;19976;-75
2022/12/29 02:55:23;;;;;;;;;;;;;;;11.04;72.53;99800.38;5014810;28;19918;-76
2022/12/29 02:58:04;;;;;;;;;;;;;;;11.05;72.71;99810.09;5015875;28;19917;-76
2022/12/29 03:00:29;;;;;;;;;;;;;;;11.05;72.55;99810.91;5016737;28;19921;-76
2022/12/29 03:03:01;;;;;;;;;;;;;;;11.06;72.57;99811.69;5016126;28;20052;-75
2022/12/29 03:05:26;;;;;;;;;;;;;;;11.07;72.54;99817.94;5015686;28;20004;-76
2022/12/29 03:07:54;;;;;;;;;;;;;;;11.07;72.52;99824.16;5014785;28;20375;-76
2022/12/29 03:10:20;;;;;;;;;;;;;;;11.07;72.44;99810.63;5016475;28;19914;-75
2022/12/29 03:18:29;;;;;;;;;;;;;;;11.07;72.44;99807.94;5015610;28;20381;-76
2022/12/29 03:20:58;;;;;;;;;;;;;;;11.08;72.68;99808.75;5015539;28;19925;-76
2022/12/29 03:23:24;;;;;;;;;;;;;;;11.08;72.36;99806.84;5015424;28;20027;-76
2022/12/29 03:25:52;;;;;;;;;;;;;;;11.08;72.68;99806.84;5015333;28;19972;-76
2022/12/29 03:28:34;;;;;;;;;;;;;;;11.10;72.54;99806.59;5015324;28;20415;-75
2022/12/29 03:31:00;;;;;;;;;;;;;;;11.09;72.46;99808.50;5016242;28;19919;-76
2022/12/29 03:33:27;;;;;;;;;;;;;;;11.09;72.35;99808.50;5013737;28;19909;-76
2022/12/29 03:35:55;;;;;;;;;;;;;;;11.09;72.41;99811.19;5015403;28;19913;-76
2022/12/29 03:38:39;;;;;;;;;;;;;;;11.10;72.24;99807.41;5015372;28;19948;-77
2022/12/29 03:41:07;;;;;;;;;;;;;;;11.11;72.22;99803.59;5015391;28;19917;-77
2022/12/29 03:43:33;;;;;;;;;;;;;;;11.10;72.33;99810.09;5015297;28;19913;-75
2022/12/29 03:45:58;;;;;;;;;;;;;;;11.11;72.36;99819.81;5015675;28;20250;-76
2022/12/29 03:48:23;;;;;;;;;;;;;;;11.11;72.24;99802.78;5015632;28;20337;-76
2022/12/29 03:50:49;;;;;;;;;;;;;;;11.11;72.36;99813.59;5014949;28;19914;-75
2022/12/29 03:53:14;;;;;;;;;;;;;;;11.11;72.24;99809.00;5014653;28;20396;-76
2022/12/29 03:55:39;;;;;;;;;;;;;;;11.12;72.24;99807.13;5013933;28;20358;-76
2022/12/29 03:58:04;;;;;;;;;;;;;;;11.11;72.24;99798.19;5014999;28;20269;-76
2022/12/29 04:00:30;;;;;;;;;;;;;;;11.11;72.15;99800.91;5014250;28;19980;-76
2022/12/29 04:02:55;;;;;;;;;;;;;;;11.13;72.39;99806.03;5015824;28;19971;-76
2022/12/29 04:05:20;;;;;;;;;;;;;;;11.13;72.15;99808.75;5014919;28;19917;-76
2022/12/29 04:07:46;;;;;;;;;;;;;;;11.12;72.18;99812.53;5014933;28;20284;-76
2022/12/29 04:10:11;;;;;;;;;;;;;;;11.13;72.21;99816.84;5014865;28;19924;-77
2022/12/29 04:12:36;;;;;;;;;;;;;;;11.12;72.21;99826.84;5014906;28;20378;-76
2022/12/29 04:15:01;;;;;;;;;;;;;;;11.10;72.18;99818.19;5014829;28;19987;-76
2022/12/29 04:17:26;;;;;;;;;;;;;;;11.11;72.21;99813.59;5014862;28;19924;-76
2022/12/29 04:20:59;;;;;;;;;;;;;;;11.11;72.09;99835.22;5014469;28;20004;-76
2022/12/29 04:22:37;;;;;;;;;;;;;;;11.10;72.10;99823.59;5014545;28;19940;-76
2022/12/29 04:25:02;;;;;;;;;;;;;;;11.09;72.15;99822.00;5015509;28;20326;-77
2022/12/29 04:27:27;;;;;;;;;;;;;;;11.09;72.11;99830.09;5014593;28;19968;-75
2022/12/29 04:29:53;;;;;;;;;;;;;;;11.10;71.99;99836.31;5014572;28;20421;-76
2022/12/29 04:32:18;;;;;;;;;;;;;;;11.09;72.23;99846.31;5014508;28;20273;-75
2022/12/29 04:34:43;;;;;;;;;;;;;;;11.10;72.09;99857.94;5014533;28;19976;-76
2022/12/29 04:37:08;;;;;;;;;;;;;;;11.10;71.95;99850.63;5014455;28;19918;-76
2022/12/29 04:39:34;;;;;;;;;;;;;;;11.10;72.10;99863.34;5013997;28;19917;-77
2022/12/29 04:41:59;;;;;;;;;;;;;;;11.10;71.96;99868.75;5014319;28;19917;-76
2022/12/29 04:44:24;;;;;;;;;;;;;;;11.10;71.87;99868.75;5013425;28;20004;-76
2022/12/29 04:46:49;;;;;;;;;;;;;;;11.09;71.85;99876.06;5014264;28;19924;-76
2022/12/29 04:49:15;;;;;;;;;;;;;;;11.09;71.89;99867.94;5012751;28;20009;-76
2022/12/29 04:51:40;;;;;;;;;;;;;;;11.10;71.90;99871.44;5013743;28;19926;-77
2022/12/29 04:54:05;;;;;;;;;;;;;;;11.10;71.85;99876.84;5013931;28;20374;-75
2022/12/29 04:56:30;;;;;;;;;;;;;;;11.08;71.72;99866.31;4996814;28;19984;-76
2022/12/29 04:58:56;;;;;;;;;;;;;;;11.09;71.65;99867.09;5014186;28;20341;-76
2022/12/29 05:01:21;;;;;;;;;;;;;;;11.08;71.56;99865.50;5013990;28;20325;-76
2022/12/29 05:03:46;;;;;;;;;;;;;;;11.08;71.87;99879.81;5014176;28;19917;-77
2022/12/29 05:06:11;;;;;;;;;;;;;;;11.09;71.55;99886.88;5014369;28;20000;-77
2022/12/29 05:08:37;;;;;;;;;;;;;;;11.09;71.81;99884.16;5013233;28;19917;-76
2022/12/29 05:11:02;;;;;;;;;;;;;;;11.08;71.65;99892.53;5014330;28;19935;-76
2022/12/29 05:13:27;;;;;;;;;;;;;;;11.09;71.76;99880.63;5013966;28;19917;-75
2022/12/29 05:15:53;;;;;;;;;;;;;;;11.09;71.72;99886.88;5013805;28;19920;-76
2022/12/29 05:18:18;;;;;;;;;;;;;;;11.09;71.54;99886.88;5013889;28;19958;-76
2022/12/29 05:20:44;;;;;;;;;;;;;;;11.10;71.67;99903.88;5014040;28;19924;-76
2022/12/29 05:23:09;;;;;;;;;;;;;;;11.10;71.57;99903.88;5014336;28;19917;-75
2022/12/29 05:25:35;;;;;;;;;;;;;;;11.10;71.70;99893.06;5013962;28;20048;-76
2022/12/29 05:28:00;;;;;;;;;;;;;;;11.10;71.58;99902.00;5013908;28;19968;-75
2022/12/29 05:30:25;;;;;;;;;;;;;;;11.09;71.56;99900.38;5013843;28;19918;-76
2022/12/29 05:32:50;;;;;;;;;;;;;;;11.10;71.47;99902.00;5013879;28;19956;-75
2022/12/29 05:35:16;;;;;;;;;;;;;;;11.09;71.54;99908.47;5014430;28;19959;-76
2022/12/29 05:37:41;;;;;;;;;;;;;;;11.08;71.41;99916.84;5013967;28;20379;-75
2022/12/29 05:40:07;;;;;;;;;;;;;;;11.08;71.41;99922.25;5013823;28;19923;-76
2022/12/29 05:42:32;;;;;;;;;;;;;;;11.10;71.25;99933.63;5013727;28;20381;-76
2022/12/29 05:44:57;;;;;;;;;;;;;;;11.09;71.52;99931.97;5013523;28;19914;-76
2022/12/29 05:47:23;;;;;;;;;;;;;;;11.09;71.39;99938.22;5013668;28;19924;-75
2022/12/29 05:49:48;;;;;;;;;;;;;;;11.10;71.35;99941.72;5013270;28;19921;-76
2022/12/29 05:52:13;;;;;;;;;;;;;;;11.09;71.15;99927.41;5012615;28;19929;-76
2022/12/29 05:54:38;;;;;;;;;;;;;;;11.09;71.36;99932.81;5013653;28;19920;-75
2022/12/29 05:57:04;;;;;;;;;;;;;;;11.08;71.30;99925.75;5016979;28;19918;-75
2022/12/29 05:59:29;;;;;;;;;;;;;;;11.08;71.41;99931.16;5016842;28;19918;-75
2022/12/29 06:01:54;;;;;;;;;;;;;;;11.08;71.18;99941.97;5017034;28;20412;-76
2022/12/29 06:04:19;;;;;;;;;;;;;;;11.07;71.46;99943.06;5015914;28;20439;-76
2022/12/29 06:06:45;;;;;;;;;;;;;;;11.08;71.41;99933.06;5017061;28;20251;-76
2022/12/29 06:09:10;;;;;;;;;;;;;;;11.06;71.26;99938.72;5016826;28;19933;-76
2022/12/29 06:11:36;;;;;;;;;;;;;;;11.07;71.03;99928.75;5016981;28;19918;-75
2022/12/29 06:14:01;;;;;;;;;;;;;;;11.06;71.35;99925.22;5016849;28;19967;-76
2022/12/29 06:16:26;;;;;;;;;;;;;;;11.07;71.20;99928.75;5016840;28;19913;-75
2022/12/29 06:18:51;;;;;;;;;;;;;;;11.07;71.36;99932.25;5015679;28;19917;-76
2022/12/29 06:21:17;;;;;;;;;;;;;;;11.07;71.19;99928.75;5016880;28;20365;-76
2022/12/29 06:23:42;;;;;;;;;;;;;;;11.05;71.13;99921.69;5016397;28;19917;-75
2022/12/29 06:26:07;;;;;;;;;;;;;;;11.05;71.18;99920.88;5017284;28;20364;-75
2022/12/29 06:28:32;;;;;;;;;;;;;;;11.03;71.04;99913.03;5017093;28;19917;-75
2022/12/29 06:30:58;;;;;;;;;;;;;;;11.04;71.25;99914.69;5016678;28;19917;-76
2022/12/29 06:33:23;;;;;;;;;;;;;;;11.04;70.94;99911.97;5016594;28;20087;-76
2022/12/29 06:35:48;;;;;;;;;;;;;;;11.04;70.97;99919.28;5016788;28;20285;-76
2022/12/29 06:38:14;;;;;;;;;;;;;;;11.05;71.01;99915.50;5014913;28;19924;-74
2022/12/29 06:40:41;;;;;;;;;;;;;;;11.03;71.03;99907.63;5016486;28;19914;-75
2022/12/29 06:43:06;;;;;;;;;;;;;;;11.04;71.03;99900.38;5016422;28;19971;-77
2022/12/29 06:45:32;;;;;;;;;;;;;;;11.03;70.80;99910.34;5015101;28;20286;-74
2022/12/29 06:47:57;;;;;;;;;;;;;;;11.03;70.85;99909.53;5016144;28;19952;-76
2022/12/29 06:50:22;;;;;;;;;;;;;;;11.02;70.85;99897.91;5016007;28;19980;-76
2022/12/29 06:52:47;;;;;;;;;;;;;;;11.02;70.82;99921.44;5016346;28;20003;-76
2022/12/29 06:55:13;;;;;;;;;;;;;;;11.01;70.97;99923.31;5016419;28;19917;-75
2022/12/29 06:57:38;;;;;;;;;;;;;;;11.01;70.86;99933.31;5016062;28;19914;-76
2022/12/29 07:00:04;;;;;;;;;;;;;;;11.01;70.80;99931.44;5016679;28;19921;-77
2022/12/29 07:02:29;;;;;;;;;;;;;;;11.01;70.89;99947.66;5016022;28;20012;-74
2022/12/29 07:04:55;;;;;;;;;;;;;;;11.01;70.99;99946.81;5015983;28;19995;-74
2022/12/29 07:07:20;;;;;;;;;;;;;;;11.01;70.98;99950.34;5015366;28;19923;-74
2022/12/29 07:09:46;;;;;;;;;;;;;;;11.01;70.70;99946.81;5015835;28;20004;-76
2022/12/29 07:12:11;;;;;;;;;;;;;;;11.00;70.83;99947.91;5015906;28;20012;-76
2022/12/29 07:14:37;;;;;;;;;;;;;;;11.00;70.61;99953.31;5015851;28;20283;-76
2022/12/29 07:17:05;;;;;;;;;;;;;;;10.99;70.65;99949.00;5015910;28;19972;-76
2022/12/29 07:19:30;;;;;;;;;;;;;;;10.98;70.47;99967.06;5015897;28;19917;-75
2022/12/29 07:21:55;;;;;;;;;;;;;;;10.98;70.63;99966.25;5016155;28;20025;-75
2022/12/29 07:24:21;;;;;;;;;;;;;;;10.97;70.67;99960.06;5015721;28;19939;-75
2022/12/29 07:26:46;;;;;;;;;;;;;;;10.97;70.60;99965.47;5015618;28;20455;-75
2022/12/29 07:29:12;;;;;;;;;;;;;;;10.97;70.64;99973.56;5015009;28;19917;-75
2022/12/29 07:31:37;;;;;;;;;;;;;;;10.97;70.43;99981.66;5014358;28;19972;-75
2022/12/29 07:34:02;;;;;;;;;;;;;;;10.98;70.39;99982.47;5015121;28;19993;-75
2022/12/29 07:36:28;;;;;;;;;;;;;;;10.97;70.43;99989.78;5015416;28;19956;-75
2022/12/29 07:38:53;;;;;;;;;;;;;;;10.97;69.66;99992.47;5015019;28;19952;-68
2022/12/29 07:41:18;;;;;;;;;;;;;;;10.95;69.42;99983.00;5015572;28;20235;-74
2022/12/29 07:43:46;;;;;;;;;;;;;;;10.94;69.61;99982.19;5015113;28;19928;-75
2022/12/29 07:46:11;;;;;;;;;;;;;;;10.92;69.84;99978.94;5015572;28;19913;-74
2022/12/29 07:48:37;;;;;;;;;;;;;;;10.92;69.99;99989.75;5015086;28;19971;-75
2022/12/29 07:51:02;;;;;;;;;;;;;;;10.93;70.01;99988.66;5015444;28;19913;-75
2022/12/29 07:53:27;;;;;;;;;;;;;;;10.94;69.83;100005.72;5014667;28;19944;-75
2022/12/29 07:55:52;;;;;;;;;;;;;;;10.93;70.03;100029.19;5013615;28;19910;-75
2022/12/29 07:58:18;;;;;;;;;;;;;;;10.92;70.07;100016.78;5014650;28;20366;-75
2022/12/29 08:00:43;;;;;;;;;;;;;;;10.94;69.92;100016.53;5014716;28;20417;-75
2022/12/29 08:03:09;;;;;;;;;;;;;;;10.94;70.20;100020.03;5013319;28;19960;-75
2022/12/29 08:05:34;;;;;;;;;;;;;;;10.94;70.09;100008.41;5014562;28;19921;-75
2022/12/29 08:07:59;;;;;;;;;;;;;;;10.96;70.14;100012.47;5014046;28;19961;-75
2022/12/29 08:10:25;;;;;;;;;;;;;;;10.95;70.15;100010.84;5014294;28;19918;-76
2022/12/29 08:12:50;;;;;;;;;;;;;;;10.95;70.00;100008.13;5014292;28;19918;-76
2022/12/29 08:15:15;;;;;;;;;;;;;;;10.94;70.22;99998.41;5013623;28;19924;-75
2022/12/29 08:17:41;;;;;;;;;;;;;;;10.93;70.28;99998.66;5014115;28;20277;-74
2022/12/29 08:20:06;;;;;;;;;;;;;;;10.93;69.99;99987.84;5013884;28;19914;-76
2022/12/29 08:22:32;;;;;;;;;;;;;;;10.93;70.17;99990.56;5012806;28;19920;-74
2022/12/29 08:24:57;;;;;;;;;;;;;;;10.92;70.18;99987.06;5014408;28;19924;-74
2022/12/29 08:27:22;;;;;;;;;;;;;;;10.91;70.09;99996.25;5014190;28;20396;-75
2022/12/29 08:29:48;;;;;;;;;;;;;;;10.91;70.06;99987.31;5013877;28;20243;-76
2022/12/29 08:32:13;;;;;;;;;;;;;;;10.91;70.08;99988.16;5014211;28;19918;-75
2022/12/29 08:34:38;;;;;;;;;;;;;;;10.92;70.07;99994.34;5013619;28;19940;-75
2022/12/29 08:37:03;;;;;;;;;;;;;;;10.90;70.18;99986.50;5014175;28;20361;-75
2022/12/29 08:39:29;;;;;;;;;;;;;;;10.90;69.97;99986.50;5013739;28;19964;-75
2022/12/29 08:41:54;;;;;;;;;;;;;;;10.89;69.98;99995.69;5014096;28;19922;-75
2022/12/29 08:44:20;;;;;;;;;;;;;;;10.90;69.97;99993.78;5013909;28;19917;-75
2022/12/29 08:46:45;;;;;;;;;;;;;;;10.89;69.84;100000.28;5014373;28;19917;-76
2022/12/29 08:49:10;;;;;;;;;;;;;;;10.89;69.80;99993.00;5013937;28;20040;-75
2022/12/29 08:51:35;;;;;;;;;;;;;;;10.89;69.75;99998.41;5013742;28;20286;-75
2022/12/29 08:54:01;;;;;;;;;;;;;;;10.88;69.79;100012.97;5013364;28;19967;-75
2022/12/29 08:56:26;;;;;;;;;;;;;;;10.90;69.73;100010.00;5013786;28;20056;-75
2022/12/29 08:58:51;;;;;;;;;;;;;;;10.89;69.74;100017.31;5012333;28;19917;-76
2022/12/29 09:01:17;;;;;;;;;;;;;;;10.89;69.78;100024.59;5013558;28;20012;-75
2022/12/29 09:03:42;;;;;;;;;;;;;;;10.88;69.45;100031.88;5014375;28;19914;-76
2022/12/29 09:06:07;;;;;;;;;;;;;;;10.88;69.61;100025.66;5013970;28;20366;-76
2022/12/29 09:08:33;;;;;;;;;;;;;;;10.88;69.73;100041.88;5013626;28;19917;-75
2022/12/29 09:11:15;;;;;;;;;;;;;;;10.87;69.68;100040.25;5013652;28;19975;-75
2022/12/29 09:13:40;;;;;;;;;;;;;;;10.86;69.69;100049.41;5013799;28;20372;-76
2022/12/29 09:16:06;;;;;;;;;;;;;;;10.85;69.67;100048.63;5013482;28;20000;-74
2022/12/29 09:18:31;;;;;;;;;;;;;;;10.87;69.66;100051.06;5013520;28;20016;-76
2022/12/29 09:21:01;;;;;;;;;;;;;;;10.87;69.47;100043.78;5012308;28;19917;-74
2022/12/29 09:23:26;;;;;;;;;;;;;;;10.86;69.67;100050.25;5013654;28;19913;-76
2022/12/29 09:25:52;;;;;;;;;;;;;;;10.86;69.79;100052.97;5013530;28;20297;-74
2022/12/29 09:28:17;;;;;;;;;;;;;;;10.85;69.72;100059.41;5013608;28;19936;-76
2022/12/29 09:30:42;;;;;;;;;;;;;;;10.85;69.78;100055.91;5014497;28;20355;-71
2022/12/29 09:33:07;;;;;;;;;;;;;;;10.84;69.95;100071.31;5017155;28;19917;-76
2022/12/29 09:35:33;;;;;;;;;;;;;;;10.83;69.89;100078.63;5017898;28;20249;-77
2022/12/29 09:37:58;;;;;;;;;;;;;;;10.83;70.05;100075.91;5017213;28;19926;-77
2022/12/29 09:40:26;;;;;;;;;;;;;;;10.86;69.95;100089.94;5017376;28;20060;-76
2022/12/29 09:43:20;;;;;;;;;;;;;;;10.85;69.90;100094.53;5017273;28;19916;-76
2022/12/29 09:45:52;;;;;;;;;;;;;;;10.86;70.17;100111.56;4980540;28;19926;-76
2022/12/29 09:48:19;;;;;;;;;;;;;;;10.86;70.16;100114.25;5017465;28;20365;-76
2022/12/29 09:50:48;;;;;;;;;;;;;;;10.86;70.40;100109.69;5015868;28;19917;-76
2022/12/29 09:53:20;;;;;;;;;;;;;;;10.87;70.31;100124.03;5016551;28;20369;-75
2022/12/29 09:55:51;;;;;;;;;;;;;;;10.88;70.57;100134.53;5016883;28;19920;-75
2022/12/29 09:58:34;;;;;;;;;;;;;;;10.88;70.53;100134.53;5016827;28;19959;-75
2022/12/29 10:01:02;;;;;;;;;;;;;;;10.89;70.54;100152.41;5017145;28;19918;-76
2022/12/29 10:03:36;;;;;;;;;;;;;;;10.89;70.62;100146.19;5016750;28;19913;-76
2022/12/29 10:06:09;;;;;;;;;;;;;;;10.88;70.42;100156.16;5017227;28;19917;-76
2022/12/29 10:08:38;;;;;;;;;;;;;;;10.89;70.57;100152.41;5016916;28;19917;-76
2022/12/29 10:11:03;;;;;;;;;;;;;;;10.89;70.48;100174.03;5016718;28;19940;-76
2022/12/29 10:13:48;;;;;;;;;;;;;;;10.88;70.79;100180.47;5015644;28;19913;-77
2022/12/29 10:16:16;;;;;;;;;;;;;;;10.89;70.50;100178.63;5016866;28;19944;-76
2022/12/29 10:18:58;;;;;;;;;;;;;;;10.89;70.76;100181.31;5014664;28;19968;-76
2022/12/29 10:21:39;;;;;;;;;;;;;;;10.89;70.56;100179.41;5016767;28;19913;-76
2022/12/29 10:24:07;;;;;;;;;;;;;;;10.89;70.65;100194.81;5015188;28;19957;-75
2022/12/29 10:26:40;;;;;;;;;;;;;;;10.88;70.50;100188.59;5016891;28;19918;-76
2022/12/29 10:29:10;;;;;;;;;;;;;;;10.89;70.78;100194.81;5032120;28;19913;-76
2022/12/29 10:31:43;;;;;;;;;;;;;;;10.89;70.60;100195.63;5015704;28;19924;-76
2022/12/29 10:34:24;;;;;;;;;;;;;;;10.89;70.69;100206.44;5016163;28;19909;-77
2022/12/29 10:36:55;;;;;;;;;;;;;;;10.87;70.75;100200.47;5016077;28;19913;-77
2022/12/29 10:39:36;;;;;;;;;;;;;;;10.89;70.58;100205.63;5016058;28;20336;-77
2022/12/29 10:42:15;;;;;;;;;;;;;;;10.90;70.81;100218.06;5015104;28;19936;-76
2022/12/29 10:44:41;;;;;;;;;;;;;;;10.88;70.70;100221.00;5015859;28;19936;-76
2022/12/29 10:47:09;;;;;;;;;;;;;;;10.87;70.63;100235.59;5016465;28;20354;-81
2022/12/29 10:49:38;;;;;;;;;;;;;;;10.87;70.57;100232.91;5014685;28;20261;-75
2022/12/29 10:52:04;;;;;;;;;;;;;;;10.87;70.47;100234.78;5015790;28;20289;-75
2022/12/29 10:54:33;;;;;;;;;;;;;;;10.88;70.48;100241.81;5015811;28;19913;-75
2022/12/29 10:57:03;;;;;;;;;;;;;;;10.87;70.55;100246.41;5015978;28;19920;-75
2022/12/29 10:59:30;;;;;;;;;;;;;;;10.87;70.54;100246.41;5015326;28;20261;-75
2022/12/29 11:02:05;;;;;;;;;;;;;;;10.87;70.56;100241.00;5015535;28;19917;-75
2022/12/29 11:04:48;;;;;;;;;;;;;;;10.86;70.54;100252.91;5016360;28;19936;-75
2022/12/29 11:07:16;;;;;;;;;;;;;;;10.86;70.74;100247.50;5016344;28;19913;-75
2022/12/29 11:09:43;;;;;;;;;;;;;;;10.86;70.53;100255.59;5015681;28;19967;-75
2022/12/29 11:12:25;;;;;;;;;;;;;;;10.87;70.72;100253.72;5016142;28;20021;-75
2022/12/29 11:15:08;;;;;;;;;;;;;;;10.86;70.61;100261.00;5015654;28;19994;-75
2022/12/29 11:17:44;;;;;;;;;;;;;;;10.85;70.70;100255.84;5016262;28;19913;-75
2022/12/29 11:20:28;;;;;;;;;;;;;;;10.86;70.69;100262.88;5015482;28;19914;-75
2022/12/29 11:22:53;;;;;;;;;;;;;;;10.86;70.72;100268.28;5014123;28;19928;-75
2022/12/29 11:25:18;;;;;;;;;;;;;;;10.86;70.60;100265.56;5014999;28;19960;-75
2022/12/29 11:28:12;;;;;;;;;;;;;;;10.85;70.70;100270.16;5015388;28;19913;-75
2022/12/29 11:30:38;;;;;;;;;;;;;;;10.84;70.60;100271.25;5015406;28;19914;-75
2022/12/29 11:33:03;;;;;;;;;;;;;;;10.86;70.44;100279.06;5013980;28;19921;-72
2022/12/29 11:35:38;;;;;;;;;;;;;;;10.86;70.31;100276.38;5015295;28;20051;-76
2022/12/29 11:38:04;;;;;;;;;;;;;;;10.87;70.36;100278.84;5015099;28;19920;-75
2022/12/29 11:40:30;;;;;;;;;;;;;;;10.89;70.35;100281.28;5015140;28;19913;-76
2022/12/29 11:42:58;;;;;;;;;;;;;;;10.89;70.34;100290.22;5015093;28;19923;-76
2022/12/29 11:45:25;;;;;;;;;;;;;;;10.88;70.39;100283.16;5014981;28;19948;-76
2022/12/29 11:47:52;;;;;;;;;;;;;;;10.91;70.19;100281.81;5014652;28;19937;-76
2022/12/29 11:50:26;;;;;;;;;;;;;;;10.90;70.33;100283.72;5015195;28;19909;-76
2022/12/29 11:52:57;;;;;;;;;;;;;;;10.91;70.56;100284.53;5014450;28;19921;-76
2022/12/29 11:55:24;;;;;;;;;;;;;;;10.92;70.45;100297.00;5014846;28;19913;-75
2022/12/29 11:57:51;;;;;;;;;;;;;;;10.92;70.43;100294.28;5014823;28;20334;-76
2022/12/29 12:00:19;;;;;;;;;;;;;;;10.92;70.57;100297.78;5014600;28;19996;-75
2022/12/29 12:02:54;;;;;;;;;;;;;;;10.92;70.58;100291.59;5014897;28;19913;-76
2022/12/29 12:05:22;;;;;;;;;;;;;;;10.93;70.50;100295.91;5014477;28;19960;-75
2022/12/29 12:07:59;;;;;;;;;;;;;;;10.92;70.43;100288.88;5014549;28;19914;-76
2022/12/29 12:10:27;;;;;;;;;;;;;;;10.93;70.44;100293.19;5013286;28;19920;-76
2022/12/29 12:12:59;;;;;;;;;;;;;;;10.94;70.59;100292.16;5014386;28;19913;-75
2022/12/29 12:15:46;;;;;;;;;;;;;;;10.94;70.44;100278.63;5014859;28;19917;-77
2022/12/29 12:18:17;;;;;;;;;;;;;;;10.92;70.35;100292.38;5013411;28;19913;-77
2022/12/29 12:20:44;;;;;;;;;;;;;;;10.94;70.28;100300.25;5014581;28;19953;-75
2022/12/29 12:23:22;;;;;;;;;;;;;;;10.94;70.41;100308.34;5014153;28;19913;-76
2022/12/29 12:25:55;;;;;;;;;;;;;;;10.93;70.52;100294.00;5014211;28;19920;-76
2022/12/29 12:28:28;;;;;;;;;;;;;;;10.94;70.37;100295.66;5014117;28;20340;-76
2022/12/29 12:30:56;;;;;;;;;;;;;;;10.96;70.47;100295.38;5014529;28;19920;-76
2022/12/29 12:33:26;;;;;;;;;;;;;;;10.95;70.52;100299.16;5014271;28;19916;-75
2022/12/29 12:36:10;;;;;;;;;;;;;;;10.95;70.35;100297.28;5013838;28;20349;-76
2022/12/29 12:38:41;;;;;;;;;;;;;;;10.95;70.29;100291.88;5013836;28;19917;-75
2022/12/29 12:41:25;;;;;;;;;;;;;;;10.96;70.41;100303.50;5013916;28;20004;-75
2022/12/29 12:43:56;;;;;;;;;;;;;;;10.96;70.42;100304.34;5014017;28;20400;-76
2022/12/29 12:46:27;;;;;;;;;;;;;;;10.96;70.27;100314.31;5014335;28;20004;-76
2022/12/29 12:49:07;;;;;;;;;;;;;;;10.98;70.34;100304.06;5014181;28;19921;-76
2022/12/29 12:51:42;;;;;;;;;;;;;;;10.98;70.20;100320.28;5013831;28;19920;-76
2022/12/29 12:54:18;;;;;;;;;;;;;;;10.98;70.10;100317.56;5013529;28;19917;-74
2022/12/29 12:56:52;;;;;;;;;;;;;;;10.98;70.13;100328.38;5013820;28;19913;-75
2022/12/29 12:59:31;;;;;;;;;;;;;;;10.98;70.21;100320.28;5013643;28;20008;-75
2022/12/29 13:01:56;;;;;;;;;;;;;;;10.98;70.24;100320.28;5013814;28;19913;-75
2022/12/29 13:04:24;;;;;;;;;;;;;;;11.00;70.31;100334.34;5013728;28;19980;-76
2022/12/29 13:06:55;;;;;;;;;;;;;;;11.00;70.38;100345.97;5013026;28;20370;-75
2022/12/29 13:09:27;;;;;;;;;;;;;;;11.00;70.37;100347.88;5013590;28;19949;-76
2022/12/29 13:11:54;;;;;;;;;;;;;;;11.00;70.36;100351.38;5013658;28;19913;-76
2022/12/29 13:14:29;;;;;;;;;;;;;;;11.00;70.33;100345.16;5012360;28;19913;-77
2022/12/29 13:17:21;;;;;;;;;;;;;;;11.01;70.41;100341.38;5013601;28;19932;-74
2022/12/29 13:19:49;;;;;;;;;;;;;;;10.98;70.52;100340.00;5013947;28;19914;-75